createdAt,value
2022-12-16T00:01:52.589Z,17.50
2022-12-16T00:04:25.418Z,18.60
2022-12-16T00:07:00.571Z,15.30
2022-12-16T00:09:34.955Z,14.43
2022-12-16T00:12:09.623Z,16.37
2022-12-16T00:14:38.038Z,20.07
2022-12-16T00:17:12.552Z,18.77
2022-12-16T00:19:42.440Z,18.63
2022-12-16T00:22:17.537Z,18.87
2022-12-16T00:24:46.056Z,21.67
2022-12-16T00:27:20.743Z,18.33
2022-12-16T00:29:49.227Z,19.10
2022-12-16T00:32:24.727Z,17.47
2022-12-16T00:34:54.452Z,16.20
2022-12-16T00:37:29.580Z,20.47
2022-12-16T00:39:57.835Z,16.83
2022-12-16T00:42:32.647Z,14.73
2022-12-16T00:45:00.972Z,16.57
2022-12-16T00:47:39.669Z,15.20
2022-12-16T00:50:13.545Z,16.10
2022-12-16T00:52:48.703Z,16.40
2022-12-16T00:55:18.485Z,15.87
2022-12-16T00:57:53.764Z,18.07
2022-12-16T01:00:25.560Z,16.43
2022-12-16T01:03:00.803Z,16.03
2022-12-16T01:05:31.007Z,15.20
2022-12-16T01:08:12.679Z,15.67
2022-12-16T01:10:48.425Z,18.70
2022-12-16T01:13:23.602Z,17.43
2022-12-16T01:15:52.388Z,16.30
2022-12-16T01:18:27.642Z,15.87
2022-12-16T01:21:04.045Z,18.80
2022-12-16T01:23:39.712Z,12.97
2022-12-16T01:26:08.052Z,15.00
2022-12-16T01:28:42.792Z,15.27
2022-12-16T01:31:12.779Z,15.07
2022-12-16T01:33:47.590Z,16.87
2022-12-16T01:36:17.616Z,17.20
2022-12-16T01:38:52.799Z,16.43
2022-12-16T01:41:21.304Z,17.33
2022-12-16T01:43:55.590Z,18.30
2022-12-16T01:46:26.553Z,15.43
2022-12-16T01:49:08.792Z,15.87
2022-12-16T01:51:42.254Z,14.87
2022-12-16T01:54:23.822Z,17.10
2022-12-16T01:56:56.788Z,16.60
2022-12-16T01:59:34.843Z,17.87
2022-12-16T02:02:23.894Z,18.23
2022-12-16T02:05:23.315Z,20.27
2022-12-16T02:08:08.735Z,20.23
2022-12-16T02:10:51.506Z,21.73
2022-12-16T02:13:37.682Z,17.87
2022-12-16T02:16:17.191Z,17.37
2022-12-16T02:19:05.943Z,16.10
2022-12-16T02:21:53.986Z,17.40
2022-12-16T02:25:09.911Z,18.33
2022-12-16T02:27:58.414Z,17.40
2022-12-16T02:30:46.672Z,18.43
2022-12-16T02:33:28.543Z,19.47
2022-12-16T02:36:10.681Z,21.90
2022-12-16T02:38:44.558Z,19.77
2022-12-16T02:41:25.837Z,19.47
2022-12-16T02:43:59.165Z,19.70
2022-12-16T02:46:38.841Z,19.30
2022-12-16T02:49:08.629Z,22.77
2022-12-16T02:51:44.728Z,21.13
2022-12-16T02:54:14.173Z,20.03
2022-12-16T02:57:01.748Z,19.70
2022-12-16T02:59:39.332Z,20.23
2022-12-16T03:02:22.886Z,22.07
2022-12-16T03:05:02.566Z,19.40
2022-12-16T03:07:41.879Z,20.80
2022-12-16T03:10:15.135Z,20.73
2022-12-16T03:12:53.755Z,20.33
2022-12-16T03:15:25.915Z,19.07
2022-12-16T03:18:03.721Z,19.90
2022-12-16T03:20:37.042Z,19.40
2022-12-16T03:23:17.711Z,19.23
2022-12-16T03:25:48.658Z,21.00
2022-12-16T03:28:37.716Z,19.73
2022-12-16T03:31:12.922Z,20.43
2022-12-16T03:33:55.768Z,21.47
2022-12-16T03:36:26.351Z,22.10
2022-12-16T03:39:03.787Z,21.43
2022-12-16T03:41:36.013Z,21.27
2022-12-16T03:44:11.770Z,22.57
2022-12-16T03:46:42.396Z,21.87
2022-12-16T03:49:18.758Z,20.37
2022-12-16T03:51:47.134Z,23.07
2022-12-16T03:54:22.757Z,22.73
2022-12-16T03:56:51.266Z,22.23
2022-12-16T03:59:26.756Z,20.80
2022-12-16T04:01:58.221Z,21.80
2022-12-16T04:04:40.890Z,21.90
2022-12-16T04:07:22.009Z,21.93
2022-12-16T04:09:58.781Z,24.93
2022-12-16T04:12:44.390Z,26.17
2022-12-16T04:15:40.066Z,25.20
2022-12-16T04:18:33.589Z,23.10
2022-12-16T04:21:28.932Z,23.87
2022-12-16T04:24:27.876Z,25.77
2022-12-16T04:27:20.814Z,24.23
2022-12-16T04:30:13.046Z,24.07
2022-12-16T04:32:59.704Z,26.43
2022-12-16T04:35:53.052Z,29.53
2022-12-16T04:38:39.964Z,28.17
2022-12-16T04:41:31.821Z,31.57
2022-12-16T04:44:18.385Z,34.23
2022-12-16T04:47:10.947Z,32.70
2022-12-16T04:49:57.064Z,39.73
2022-12-16T04:52:49.844Z,37.07
2022-12-16T04:55:37.809Z,38.07
2022-12-16T04:58:29.959Z,42.17
2022-12-16T05:01:16.520Z,38.17
2022-12-16T05:04:15.101Z,36.47
2022-12-16T05:07:09.240Z,37.37
2022-12-16T05:10:00.861Z,39.27
2022-12-16T05:12:48.235Z,40.73
2022-12-16T05:15:40.883Z,47.83
2022-12-16T05:18:28.272Z,40.97
2022-12-16T05:21:21.071Z,43.90
2022-12-16T05:24:07.206Z,46.47
2022-12-16T05:26:59.880Z,47.17
2022-12-16T05:29:55.980Z,48.30
2022-12-16T05:32:41.330Z,44.47
2022-12-16T05:35:33.771Z,47.97
2022-12-16T05:38:19.390Z,50.87
2022-12-16T05:41:11.994Z,50.97
2022-12-16T05:43:57.762Z,47.77
2022-12-16T05:46:48.188Z,46.70
2022-12-16T05:49:34.167Z,48.27
2022-12-16T05:52:25.896Z,54.43
2022-12-16T05:55:11.437Z,54.10
2022-12-16T05:58:03.899Z,53.57
2022-12-16T06:00:52.040Z,63.03
2022-12-16T06:03:51.974Z,64.13
2022-12-16T06:06:37.878Z,59.87
2022-12-16T06:09:29.854Z,72.30
2022-12-16T06:12:15.508Z,77.03
2022-12-16T06:15:10.105Z,74.73
2022-12-16T06:17:56.240Z,66.10
2022-12-16T06:20:50.005Z,78.10
2022-12-16T06:23:36.333Z,68.70
2022-12-16T06:26:28.975Z,68.63
2022-12-16T06:29:14.726Z,81.70
2022-12-16T06:32:06.984Z,88.17
2022-12-16T06:34:53.847Z,102.33
2022-12-16T06:37:50.874Z,96.33
2022-12-16T06:40:43.132Z,112.53
2022-12-16T06:43:40.050Z,150.23
2022-12-16T06:46:32.107Z,156.33
2022-12-16T06:49:17.991Z,152.10
2022-12-16T06:52:10.942Z,140.07
2022-12-16T06:54:58.252Z,241.27
2022-12-16T06:57:51.619Z,191.03
2022-12-16T07:00:38.493Z,155.27
2022-12-16T07:03:37.503Z,299.73
2022-12-16T07:06:20.123Z,119.67
2022-12-16T07:09:12.880Z,131.70
2022-12-16T07:12:00.212Z,159.77
2022-12-16T07:14:53.087Z,199.80
2022-12-16T07:17:38.899Z,195.63
2022-12-16T07:20:31.986Z,183.40
2022-12-16T07:23:19.776Z,146.70
2022-12-16T07:26:12.890Z,126.37
2022-12-16T07:29:00.156Z,143.60
2022-12-16T07:31:52.129Z,142.63
2022-12-16T07:34:41.384Z,125.60
2022-12-16T07:37:35.867Z,138.00
2022-12-16T07:40:21.716Z,151.93
2022-12-16T07:43:13.914Z,140.43
2022-12-16T07:46:01.213Z,149.33
2022-12-16T07:48:54.296Z,130.83
2022-12-16T07:51:42.192Z,148.37
2022-12-16T07:54:35.016Z,150.87
2022-12-16T07:57:27.929Z,113.97
2022-12-16T08:00:13.742Z,153.93
2022-12-16T08:03:08.204Z,161.53
2022-12-16T08:06:02.913Z,158.80
2022-12-16T08:08:55.114Z,174.67
2022-12-16T08:11:41.093Z,164.00
2022-12-16T08:14:33.989Z,249.63
2022-12-16T08:17:19.702Z,242.60
2022-12-16T08:20:13.110Z,197.37
2022-12-16T08:22:59.460Z,201.47
2022-12-16T08:25:52.558Z,245.50
2022-12-16T08:28:41.201Z,177.23
2022-12-16T08:31:33.006Z,185.50
2022-12-16T08:34:18.748Z,187.73
2022-12-16T08:37:12.930Z,258.37
2022-12-16T08:40:25.806Z,233.87
2022-12-16T08:43:12.760Z,216.17
2022-12-16T08:45:59.192Z,228.50
2022-12-16T08:48:50.998Z,250.33
2022-12-16T08:51:36.507Z,256.33
2022-12-16T08:54:31.137Z,186.30
2022-12-16T08:57:24.041Z,178.23
2022-12-16T09:00:09.715Z,270.47
2022-12-16T09:03:02.188Z,137.60
2022-12-16T09:05:54.517Z,175.70
2022-12-16T09:08:47.043Z,115.73
2022-12-16T09:11:34.653Z,83.17
2022-12-16T09:14:27.143Z,79.13
2022-12-16T09:17:12.919Z,88.17
2022-12-16T09:20:05.062Z,80.17
2022-12-16T09:22:50.696Z,116.17
2022-12-16T09:25:45.183Z,128.83
2022-12-16T09:28:43.693Z,100.17
2022-12-16T09:31:36.126Z,117.23
2022-12-16T09:34:22.018Z,69.93
2022-12-16T09:37:15.309Z,56.50
2022-12-16T09:40:01.084Z,54.13
2022-12-16T09:43:03.064Z,54.57
2022-12-16T09:46:00.364Z,51.80
2022-12-16T09:49:00.191Z,43.63
2022-12-16T09:51:47.118Z,39.40
2022-12-16T09:54:43.014Z,37.20
2022-12-16T09:57:28.428Z,37.10
2022-12-16T10:00:26.188Z,37.70
2022-12-16T10:03:16.874Z,35.33
2022-12-16T10:06:37.015Z,40.17
2022-12-16T10:09:39.443Z,40.23
2022-12-16T10:12:32.840Z,36.23
2022-12-16T10:15:37.112Z,37.63
2022-12-16T10:18:35.672Z,31.80
2022-12-16T10:21:30.211Z,33.17
2022-12-16T10:24:24.012Z,29.47
2022-12-16T10:27:21.104Z,33.33
2022-12-16T10:30:07.230Z,34.73
2022-12-16T10:33:00.065Z,32.83
2022-12-16T10:35:50.261Z,35.47
2022-12-16T10:38:47.109Z,31.63
2022-12-16T10:41:33.477Z,36.83
2022-12-16T10:44:27.122Z,31.40
2022-12-16T10:47:12.887Z,35.30
2022-12-16T10:50:05.232Z,30.97
2022-12-16T10:53:03.674Z,28.57
2022-12-16T10:56:08.129Z,28.37
2022-12-16T10:59:04.828Z,26.13
2022-12-16T11:01:57.349Z,28.33
2022-12-16T11:05:06.193Z,25.70
2022-12-16T11:08:04.269Z,26.00
2022-12-16T11:10:54.203Z,27.03
2022-12-16T11:13:50.099Z,26.37
2022-12-16T11:16:38.471Z,25.90
2022-12-16T11:19:43.123Z,25.23
2022-12-16T11:22:35.229Z,24.07
2022-12-16T11:25:41.320Z,23.80
2022-12-16T11:28:32.314Z,22.37
2022-12-16T11:31:28.194Z,25.23
2022-12-16T11:34:16.821Z,23.57
2022-12-16T11:37:11.883Z,25.23
2022-12-16T11:39:59.236Z,18.37
2022-12-16T11:42:57.368Z,26.03
2022-12-16T11:45:43.310Z,28.13
2022-12-16T11:48:43.346Z,26.67
2022-12-16T11:51:40.227Z,26.37
2022-12-16T11:54:30.570Z,25.97
2022-12-16T11:57:26.142Z,24.20
2022-12-16T12:00:19.600Z,25.03
2022-12-16T12:03:24.310Z,23.73
2022-12-16T12:06:22.182Z,26.20
2022-12-16T12:09:23.144Z,24.43
2022-12-16T12:12:28.279Z,26.60
2022-12-16T12:15:28.362Z,22.77
2022-12-16T12:18:21.206Z,23.23
2022-12-16T12:21:19.171Z,23.37
2022-12-16T12:24:12.056Z,22.10
2022-12-16T12:27:12.338Z,26.27
2022-12-16T12:30:16.361Z,21.20
2022-12-16T12:33:18.200Z,20.60
2022-12-16T12:36:15.795Z,22.70
2022-12-16T12:39:18.369Z,21.13
2022-12-16T12:42:16.727Z,18.80
2022-12-16T12:45:19.219Z,16.57
2022-12-16T12:48:12.796Z,17.10
2022-12-16T12:51:11.383Z,16.07
2022-12-16T12:54:02.150Z,17.70
2022-12-16T12:57:02.217Z,16.60
2022-12-16T13:00:05.260Z,15.87
2022-12-16T13:03:08.453Z,17.10
2022-12-16T13:06:11.373Z,16.93
2022-12-16T13:09:13.719Z,15.43
2022-12-16T13:12:44.668Z,15.40
2022-12-16T13:15:38.060Z,17.60
2022-12-16T13:18:55.288Z,19.40
2022-12-16T13:22:03.444Z,21.87
2022-12-16T13:25:11.264Z,22.60
2022-12-16T13:28:12.954Z,21.90
2022-12-16T13:31:05.460Z,18.87
2022-12-16T13:33:50.986Z,20.00
2022-12-16T13:36:44.432Z,21.40
2022-12-16T13:39:44.130Z,21.47
2022-12-16T13:43:28.210Z,19.50
2022-12-16T13:46:34.088Z,20.23
2022-12-16T13:50:05.227Z,20.50
2022-12-16T13:53:07.297Z,18.73
2022-12-16T13:56:06.674Z,21.07
2022-12-16T13:59:03.581Z,19.13
2022-12-16T14:01:58.328Z,19.97
2022-12-16T14:04:59.317Z,18.80
2022-12-16T14:07:53.140Z,20.50
2022-12-16T14:11:05.278Z,18.07
2022-12-16T14:14:01.560Z,20.43
2022-12-16T14:17:02.425Z,20.57
2022-12-16T14:19:54.202Z,16.33
2022-12-16T14:23:01.294Z,17.87
2022-12-16T14:25:48.230Z,19.27
2022-12-16T14:28:48.570Z,19.00
2022-12-16T14:31:52.717Z,19.30
2022-12-16T14:34:47.272Z,22.27
2022-12-16T14:37:34.287Z,25.00
2022-12-16T14:40:26.418Z,23.23
2022-12-16T14:43:13.154Z,23.27
2022-12-16T14:46:14.494Z,20.67
2022-12-16T14:49:05.242Z,22.10
2022-12-16T14:52:00.321Z,19.57
2022-12-16T14:54:50.651Z,21.17
2022-12-16T14:57:45.407Z,19.10
2022-12-16T15:00:34.701Z,19.37
2022-12-16T15:03:34.869Z,17.70
2022-12-16T15:06:40.299Z,21.27
2022-12-16T15:09:31.869Z,19.17
2022-12-16T15:12:24.317Z,23.07
2022-12-16T15:15:12.309Z,21.87
2022-12-16T15:18:13.289Z,19.93
2022-12-16T15:21:07.568Z,24.53
2022-12-16T15:24:06.348Z,25.23
2022-12-16T15:26:53.776Z,25.53
2022-12-16T15:29:59.375Z,21.60
2022-12-16T15:32:50.020Z,21.23
2022-12-16T15:35:55.529Z,22.10
2022-12-16T15:38:47.643Z,19.27
2022-12-16T15:41:47.408Z,19.30
2022-12-16T15:44:35.546Z,24.13
2022-12-16T15:47:30.434Z,20.23
2022-12-16T15:50:16.077Z,20.83
2022-12-16T15:53:09.304Z,21.17
2022-12-16T15:56:04.172Z,20.27
2022-12-16T15:59:00.496Z,19.80
2022-12-16T16:01:53.387Z,24.67
2022-12-16T16:04:51.765Z,23.30
2022-12-16T16:07:52.396Z,21.23
2022-12-16T16:10:41.180Z,20.67
2022-12-16T16:13:34.773Z,25.03
2022-12-16T16:16:22.720Z,25.87
2022-12-16T16:19:15.399Z,23.03
2022-12-16T16:22:01.266Z,25.23
2022-12-16T16:24:53.352Z,22.13
2022-12-16T16:27:42.002Z,20.97
2022-12-16T16:30:36.390Z,21.00
2022-12-16T16:33:23.503Z,20.00
2022-12-16T16:36:15.429Z,25.83
2022-12-16T16:39:01.557Z,19.43
2022-12-16T16:41:54.370Z,19.83
2022-12-16T16:44:40.491Z,19.63
2022-12-16T16:47:40.419Z,20.13
2022-12-16T16:50:33.158Z,21.57
2022-12-16T16:53:25.429Z,24.07
2022-12-16T16:56:16.590Z,22.07
2022-12-16T16:59:12.340Z,22.17
2022-12-16T17:01:59.166Z,21.30
2022-12-16T17:04:51.572Z,26.97
2022-12-16T17:07:50.619Z,23.67
2022-12-16T17:10:44.414Z,22.17
2022-12-16T17:13:29.994Z,24.40
2022-12-16T17:16:22.637Z,25.33
2022-12-16T17:19:08.044Z,23.13
2022-12-16T17:22:00.570Z,22.97
2022-12-16T17:24:54.841Z,22.20
2022-12-16T17:27:43.634Z,22.93
2022-12-16T17:30:46.965Z,24.00
2022-12-16T17:33:33.982Z,21.77
2022-12-16T17:36:31.642Z,21.87
2022-12-16T17:39:17.712Z,21.23
2022-12-16T17:42:12.472Z,25.27
2022-12-16T17:44:58.349Z,28.73
2022-12-16T17:47:50.568Z,28.93
2022-12-16T17:50:36.491Z,25.00
2022-12-16T17:53:37.656Z,21.73
2022-12-16T17:56:24.281Z,24.37
2022-12-16T17:59:17.596Z,23.83
2022-12-16T18:02:02.982Z,26.00
2022-12-16T18:04:55.477Z,24.80
2022-12-16T18:07:43.787Z,24.23
2022-12-16T18:10:36.444Z,25.87
2022-12-16T18:13:21.807Z,26.13
2022-12-16T18:16:19.528Z,26.33
2022-12-16T18:19:08.422Z,26.20
2022-12-16T18:22:02.421Z,24.63
2022-12-16T18:24:48.680Z,30.07
2022-12-16T18:27:41.760Z,23.20
2022-12-16T18:30:35.538Z,24.90
2022-12-16T18:33:24.082Z,30.20
2022-12-16T18:36:16.488Z,30.13
2022-12-16T18:39:02.612Z,28.33
2022-12-16T18:41:54.597Z,27.77
2022-12-16T18:44:41.600Z,28.20
2022-12-16T18:47:33.538Z,24.97
2022-12-16T18:50:27.280Z,28.27
2022-12-16T18:53:36.870Z,23.17
2022-12-16T18:56:31.626Z,26.33
2022-12-16T18:59:24.544Z,25.07
2022-12-16T19:02:10.609Z,25.90
2022-12-16T19:05:02.765Z,27.70
2022-12-16T19:07:56.458Z,24.90
2022-12-16T19:10:48.506Z,25.57
2022-12-16T19:13:35.387Z,26.00
2022-12-16T19:16:27.690Z,26.63
2022-12-16T19:19:19.410Z,26.63
2022-12-16T19:22:12.746Z,21.87
2022-12-16T19:24:59.978Z,22.10
2022-12-16T19:27:52.556Z,25.37
2022-12-16T19:30:42.009Z,25.77
2022-12-16T19:33:35.501Z,23.00
2022-12-16T19:36:21.484Z,22.60
2022-12-16T19:39:13.750Z,23.10
2022-12-16T19:42:00.982Z,21.33
2022-12-16T19:44:56.002Z,24.90
2022-12-16T19:47:48.727Z,22.17
2022-12-16T19:50:34.727Z,29.00
2022-12-16T19:53:26.562Z,24.63
2022-12-16T19:56:14.893Z,23.57
2022-12-16T19:59:08.526Z,23.90
2022-12-16T20:01:55.306Z,26.53
2022-12-16T20:04:47.664Z,31.93
2022-12-16T20:07:49.620Z,30.30
2022-12-16T20:10:45.268Z,27.90
2022-12-16T20:13:31.491Z,25.27
2022-12-16T20:16:29.738Z,24.23
2022-12-16T20:19:16.253Z,29.43
2022-12-16T20:25:15.398Z,26.77
2022-12-16T20:28:03.892Z,21.67
2022-12-16T20:30:50.835Z,23.47
2022-12-16T20:33:45.940Z,24.03
2022-12-16T20:36:32.164Z,24.00
2022-12-16T20:39:24.533Z,22.93
2022-12-16T20:42:17.792Z,24.03
2022-12-16T20:45:15.060Z,25.40
2022-12-16T20:48:07.647Z,27.37
2022-12-16T20:50:56.149Z,31.00
2022-12-16T20:53:48.763Z,22.83
2022-12-16T20:56:36.736Z,27.20
2022-12-16T20:59:29.770Z,21.37
2022-12-16T21:02:23.201Z,24.37
2022-12-16T21:05:15.615Z,20.50
2022-12-16T21:08:09.961Z,22.13
2022-12-16T21:11:02.625Z,21.47
2022-12-16T21:13:49.354Z,20.87
2022-12-16T21:16:53.617Z,24.90
2022-12-16T21:19:46.833Z,21.37
2022-12-16T21:22:39.619Z,22.67
2022-12-16T21:25:27.914Z,21.20
2022-12-16T21:28:22.792Z,25.10
2022-12-16T21:31:08.695Z,20.80
2022-12-16T21:34:01.659Z,20.73
2022-12-16T21:36:47.726Z,20.17
2022-12-16T21:39:39.627Z,19.10
2022-12-16T21:42:33.120Z,22.13
2022-12-16T21:45:27.549Z,21.43
2022-12-16T21:48:19.648Z,24.13
2022-12-16T21:51:10.681Z,27.40
2022-12-16T21:54:08.032Z,24.47
2022-12-16T21:56:56.463Z,25.33
2022-12-16T21:59:50.799Z,24.77
2022-12-16T22:02:37.579Z,22.90
2022-12-16T22:05:29.795Z,24.97
2022-12-16T22:08:16.502Z,24.97
2022-12-16T22:11:08.728Z,26.27
2022-12-16T22:13:54.495Z,26.00
2022-12-16T22:16:51.927Z,21.90
2022-12-16T22:19:39.007Z,21.47
2022-12-16T22:22:31.706Z,21.00
2022-12-16T22:25:18.218Z,18.73
2022-12-16T22:28:24.833Z,21.67
2022-12-16T22:34:27.882Z,22.23
2022-12-16T22:37:13.950Z,18.10
2022-12-16T22:40:07.830Z,21.60
2022-12-16T22:42:53.622Z,20.63
2022-12-16T22:45:48.742Z,18.83
2022-12-16T22:48:41.686Z,19.73
2022-12-16T22:51:32.192Z,18.93
2022-12-16T22:54:29.765Z,19.30
2022-12-16T22:57:15.570Z,20.20
2022-12-16T23:00:09.010Z,18.73
2022-12-16T23:02:55.783Z,22.73
2022-12-16T23:05:49.726Z,18.70
2022-12-16T23:08:37.619Z,20.50
2022-12-16T23:11:31.724Z,19.27
2022-12-16T23:14:20.708Z,19.27
2022-12-16T23:17:14.790Z,19.93
2022-12-16T23:20:00.315Z,20.63
2022-12-16T23:22:53.868Z,17.47
2022-12-16T23:25:43.333Z,17.97
2022-12-16T23:28:43.750Z,20.27
2022-12-16T23:31:29.643Z,18.37
2022-12-16T23:34:22.694Z,17.37
2022-12-16T23:37:11.020Z,18.13
2022-12-16T23:40:04.693Z,20.27
2022-12-16T23:42:51.851Z,16.53
2022-12-16T23:45:43.763Z,19.73
2022-12-16T23:48:29.917Z,16.83
2022-12-16T23:51:22.788Z,22.87
2022-12-16T23:54:15.738Z,21.00
2022-12-16T23:57:02.204Z,21.57
2022-12-16T23:59:56.508Z,19.60
